sensor_id;sensor_type;location;lat;lon;timestamp;P1;durP1;ratioP1;P2;durP2;ratioP2
33206;SDS011;19565;46.602;11.534;2023-07-20T00:02:24;1.40;;;1.20;;
33206;SDS011;19565;46.602;11.534;2023-07-20T00:04:52;0.98;;;0.90;;
33206;SDS011;19565;46.602;11.534;2023-07-20T00:07:20;1.75;;;1.63;;
33206;SDS011;19565;46.602;11.534;2023-07-20T00:09:48;1.35;;;0.73;;
33206;SDS011;19565;46.602;11.534;2023-07-20T00:12:16;3.13;;;1.15;;
33206;SDS011;19565;46.602;11.534;2023-07-20T00:14:44;6.22;;;2.35;;
33206;SDS011;19565;46.602;11.534;2023-07-20T00:17:12;2.10;;;1.35;;
33206;SDS011;19565;46.602;11.534;2023-07-20T00:19:42;1.45;;;1.35;;
33206;SDS011;19565;46.602;11.534;2023-07-20T00:22:10;1.30;;;0.93;;
33206;SDS011;19565;46.602;11.534;2023-07-20T00:24:39;1.02;;;0.77;;
33206;SDS011;19565;46.602;11.534;2023-07-20T00:27:07;3.03;;;2.40;;
33206;SDS011;19565;46.602;11.534;2023-07-20T00:29:35;1.20;;;0.95;;
33206;SDS011;19565;46.602;11.534;2023-07-20T00:32:04;1.75;;;0.98;;
33206;SDS011;19565;46.602;11.534;2023-07-20T00:34:32;1.75;;;1.20;;
33206;SDS011;19565;46.602;11.534;2023-07-20T00:37:03;2.92;;;1.10;;
33206;SDS011;19565;46.602;11.534;2023-07-20T00:39:31;3.55;;;2.50;;
33206;SDS011;19565;46.602;11.534;2023-07-20T00:41:59;1.90;;;1.27;;
33206;SDS011;19565;46.602;11.534;2023-07-20T00:44:27;1.60;;;1.35;;
33206;SDS011;19565;46.602;11.534;2023-07-20T00:46:55;5.63;;;2.72;;
33206;SDS011;19565;46.602;11.534;2023-07-20T00:49:24;1.58;;;1.42;;
33206;SDS011;19565;46.602;11.534;2023-07-20T00:51:52;1.92;;;1.65;;
33206;SDS011;19565;46.602;11.534;2023-07-20T00:54:21;2.08;;;1.27;;
33206;SDS011;19565;46.602;11.534;2023-07-20T00:56:49;1.90;;;0.90;;
33206;SDS011;19565;46.602;11.534;2023-07-20T00:59:20;3.00;;;2.58;;
33206;SDS011;19565;46.602;11.534;2023-07-20T01:01:48;0.88;;;0.73;;
33206;SDS011;19565;46.602;11.534;2023-07-20T01:04:17;2.47;;;1.33;;
33206;SDS011;19565;46.602;11.534;2023-07-20T01:06:45;1.15;;;0.90;;
33206;SDS011;19565;46.602;11.534;2023-07-20T01:09:21;7.47;;;1.42;;
33206;SDS011;19565;46.602;11.534;2023-07-20T01:11:57;1.75;;;1.30;;
33206;SDS011;19565;46.602;11.534;2023-07-20T01:14:31;2.05;;;1.55;;
33206;SDS011;19565;46.602;11.534;2023-07-20T01:16:59;0.75;;;0.75;;
33206;SDS011;19565;46.602;11.534;2023-07-20T01:19:27;1.90;;;1.25;;
33206;SDS011;19565;46.602;11.534;2023-07-20T01:21:57;3.78;;;1.45;;
33206;SDS011;19565;46.602;11.534;2023-07-20T01:24:37;1.30;;;0.90;;
33206;SDS011;19565;46.602;11.534;2023-07-20T01:30:27;1.05;;;0.90;;
33206;SDS011;19565;46.602;11.534;2023-07-20T01:33:15;1.90;;;1.50;;
33206;SDS011;19565;46.602;11.534;2023-07-20T01:35:46;1.15;;;0.82;;
33206;SDS011;19565;46.602;11.534;2023-07-20T01:38:18;4.07;;;1.77;;
33206;SDS011;19565;46.602;11.534;2023-07-20T01:40:47;3.55;;;1.73;;
33206;SDS011;19565;46.602;11.534;2023-07-20T01:43:16;2.25;;;1.20;;
33206;SDS011;19565;46.602;11.534;2023-07-20T01:45:44;1.95;;;0.82;;
33206;SDS011;19565;46.602;11.534;2023-07-20T01:48:13;1.67;;;1.08;;
33206;SDS011;19565;46.602;11.534;2023-07-20T01:50:42;4.93;;;1.63;;
33206;SDS011;19565;46.602;11.534;2023-07-20T01:53:10;2.20;;;1.80;;
33206;SDS011;19565;46.602;11.534;2023-07-20T01:55:38;0.65;;;0.52;;
33206;SDS011;19565;46.602;11.534;2023-07-20T01:58:06;4.07;;;2.90;;
33206;SDS011;19565;46.602;11.534;2023-07-20T02:00:36;1.88;;;1.77;;
33206;SDS011;19565;46.602;11.534;2023-07-20T02:03:05;2.83;;;2.15;;
33206;SDS011;19565;46.602;11.534;2023-07-20T02:05:34;1.92;;;1.33;;
33206;SDS011;19565;46.602;11.534;2023-07-20T02:08:03;0.98;;;0.77;;
33206;SDS011;19565;46.602;11.534;2023-07-20T02:10:32;1.38;;;0.88;;
33206;SDS011;19565;46.602;11.534;2023-07-20T02:13:00;2.47;;;1.60;;
33206;SDS011;19565;46.602;11.534;2023-07-20T02:15:28;2.13;;;1.08;;
33206;SDS011;19565;46.602;11.534;2023-07-20T02:17:56;2.15;;;1.73;;
33206;SDS011;19565;46.602;11.534;2023-07-20T02:20:24;1.02;;;0.57;;
33206;SDS011;19565;46.602;11.534;2023-07-20T02:22:52;1.70;;;0.95;;
33206;SDS011;19565;46.602;11.534;2023-07-20T02:25:21;2.28;;;1.35;;
33206;SDS011;19565;46.602;11.534;2023-07-20T02:27:49;1.90;;;0.93;;
33206;SDS011;19565;46.602;11.534;2023-07-20T02:30:17;11.35;;;2.25;;
33206;SDS011;19565;46.602;11.534;2023-07-20T02:32:46;1.50;;;1.40;;
33206;SDS011;19565;46.602;11.534;2023-07-20T02:35:15;1.60;;;1.08;;
33206;SDS011;19565;46.602;11.534;2023-07-20T02:37:43;3.67;;;3.13;;
33206;SDS011;19565;46.602;11.534;2023-07-20T02:40:11;0.80;;;0.80;;
33206;SDS011;19565;46.602;11.534;2023-07-20T02:42:41;2.20;;;1.13;;
33206;SDS011;19565;46.602;11.534;2023-07-20T02:45:09;0.68;;;0.68;;
33206;SDS011;19565;46.602;11.534;2023-07-20T02:47:37;2.05;;;1.83;;
33206;SDS011;19565;46.602;11.534;2023-07-20T02:50:06;0.68;;;0.65;;
33206;SDS011;19565;46.602;11.534;2023-07-20T02:52:35;2.03;;;1.38;;
33206;SDS011;19565;46.602;11.534;2023-07-20T02:55:03;1.33;;;1.20;;
33206;SDS011;19565;46.602;11.534;2023-07-20T02:57:32;3.30;;;0.98;;
33206;SDS011;19565;46.602;11.534;2023-07-20T03:00:01;2.72;;;2.08;;
33206;SDS011;19565;46.602;11.534;2023-07-20T03:02:32;1.75;;;1.23;;
33206;SDS011;19565;46.602;11.534;2023-07-20T03:05:00;2.05;;;1.52;;
33206;SDS011;19565;46.602;11.534;2023-07-20T03:07:32;1.92;;;1.67;;
33206;SDS011;19565;46.602;11.534;2023-07-20T03:10:00;1.20;;;1.15;;
33206;SDS011;19565;46.602;11.534;2023-07-20T03:12:29;1.05;;;0.98;;
33206;SDS011;19565;46.602;11.534;2023-07-20T03:14:57;1.35;;;1.25;;
33206;SDS011;19565;46.602;11.534;2023-07-20T03:17:26;1.05;;;1.00;;
33206;SDS011;19565;46.602;11.534;2023-07-20T03:19:54;1.42;;;0.95;;
33206;SDS011;19565;46.602;11.534;2023-07-20T03:22:22;1.35;;;1.25;;
33206;SDS011;19565;46.602;11.534;2023-07-20T03:24:50;1.65;;;1.02;;
33206;SDS011;19565;46.602;11.534;2023-07-20T03:27:18;1.73;;;1.30;;
33206;SDS011;19565;46.602;11.534;2023-07-20T03:29:47;4.50;;;2.17;;
33206;SDS011;19565;46.602;11.534;2023-07-20T03:32:15;2.10;;;1.05;;
33206;SDS011;19565;46.602;11.534;2023-07-20T03:34:44;1.33;;;1.23;;
33206;SDS011;19565;46.602;11.534;2023-07-20T03:37:12;1.40;;;1.27;;
33206;SDS011;19565;46.602;11.534;2023-07-20T03:39:40;1.08;;;0.98;;
33206;SDS011;19565;46.602;11.534;2023-07-20T03:42:08;3.85;;;2.42;;
33206;SDS011;19565;46.602;11.534;2023-07-20T03:44:36;1.83;;;1.20;;
33206;SDS011;19565;46.602;11.534;2023-07-20T03:47:05;2.35;;;1.40;;
33206;SDS011;19565;46.602;11.534;2023-07-20T03:49:33;3.08;;;1.10;;
33206;SDS011;19565;46.602;11.534;2023-07-20T03:52:03;1.10;;;0.75;;
33206;SDS011;19565;46.602;11.534;2023-07-20T03:54:32;2.22;;;0.90;;
33206;SDS011;19565;46.602;11.534;2023-07-20T03:57:00;4.03;;;1.15;;
33206;SDS011;19565;46.602;11.534;2023-07-20T03:59:28;1.35;;;1.25;;
33206;SDS011;19565;46.602;11.534;2023-07-20T04:01:56;1.17;;;1.08;;
33206;SDS011;19565;46.602;11.534;2023-07-20T04:04:24;1.80;;;1.10;;
33206;SDS011;19565;46.602;11.534;2023-07-20T04:06:52;0.80;;;0.80;;
33206;SDS011;19565;46.602;11.534;2023-07-20T04:09:21;1.65;;;1.15;;
33206;SDS011;19565;46.602;11.534;2023-07-20T04:11:49;2.20;;;1.65;;
33206;SDS011;19565;46.602;11.534;2023-07-20T04:14:17;0.80;;;0.63;;
33206;SDS011;19565;46.602;11.534;2023-07-20T04:16:46;22.38;;;1.40;;
33206;SDS011;19565;46.602;11.534;2023-07-20T04:19:14;3.40;;;1.80;;
33206;SDS011;19565;46.602;11.534;2023-07-20T04:21:44;1.55;;;1.45;;
33206;SDS011;19565;46.602;11.534;2023-07-20T04:24:12;2.25;;;1.88;;
33206;SDS011;19565;46.602;11.534;2023-07-20T04:26:41;1.10;;;1.00;;
33206;SDS011;19565;46.602;11.534;2023-07-20T04:29:09;2.92;;;2.22;;
33206;SDS011;19565;46.602;11.534;2023-07-20T04:31:37;1.60;;;0.93;;
33206;SDS011;19565;46.602;11.534;2023-07-20T04:34:05;3.28;;;1.15;;
33206;SDS011;19565;46.602;11.534;2023-07-20T04:36:33;2.70;;;1.15;;
33206;SDS011;19565;46.602;11.534;2023-07-20T04:39:02;1.92;;;1.63;;
33206;SDS011;19565;46.602;11.534;2023-07-20T04:41:40;1.52;;;0.65;;
33206;SDS011;19565;46.602;11.534;2023-07-20T04:44:09;3.78;;;1.55;;
33206;SDS011;19565;46.602;11.534;2023-07-20T04:46:37;0.88;;;0.88;;
33206;SDS011;19565;46.602;11.534;2023-07-20T04:49:06;2.65;;;2.38;;
33206;SDS011;19565;46.602;11.534;2023-07-20T04:51:34;1.83;;;1.17;;
33206;SDS011;19565;46.602;11.534;2023-07-20T04:54:02;1.67;;;1.58;;
33206;SDS011;19565;46.602;11.534;2023-07-20T04:56:30;1.85;;;1.42;;
33206;SDS011;19565;46.602;11.534;2023-07-20T04:59:00;2.47;;;1.55;;
33206;SDS011;19565;46.602;11.534;2023-07-20T05:01:28;7.43;;;3.25;;
33206;SDS011;19565;46.602;11.534;2023-07-20T05:03:57;2.80;;;2.40;;
33206;SDS011;19565;46.602;11.534;2023-07-20T05:06:26;4.03;;;2.65;;
33206;SDS011;19565;46.602;11.534;2023-07-20T05:08:54;3.03;;;1.25;;
33206;SDS011;19565;46.602;11.534;2023-07-20T05:11:22;4.38;;;1.98;;
33206;SDS011;19565;46.602;11.534;2023-07-20T05:13:50;1.48;;;1.33;;
33206;SDS011;19565;46.602;11.534;2023-07-20T05:16:20;1.10;;;1.00;;
33206;SDS011;19565;46.602;11.534;2023-07-20T05:18:48;2.42;;;1.88;;
33206;SDS011;19565;46.602;11.534;2023-07-20T05:21:16;2.95;;;2.10;;
33206;SDS011;19565;46.602;11.534;2023-07-20T05:23:44;1.88;;;0.98;;
33206;SDS011;19565;46.602;11.534;2023-07-20T05:26:12;1.30;;;1.20;;
33206;SDS011;19565;46.602;11.534;2023-07-20T05:28:40;2.88;;;1.73;;
33206;SDS011;19565;46.602;11.534;2023-07-20T05:31:08;2.83;;;1.50;;
33206;SDS011;19565;46.602;11.534;2023-07-20T05:33:38;2.22;;;1.63;;
33206;SDS011;19565;46.602;11.534;2023-07-20T05:36:06;1.90;;;1.42;;
33206;SDS011;19565;46.602;11.534;2023-07-20T05:38:34;3.42;;;1.70;;
33206;SDS011;19565;46.602;11.534;2023-07-20T05:41:02;3.50;;;1.83;;
33206;SDS011;19565;46.602;11.534;2023-07-20T05:43:30;3.00;;;1.67;;
33206;SDS011;19565;46.602;11.534;2023-07-20T05:45:58;3.50;;;0.98;;
33206;SDS011;19565;46.602;11.534;2023-07-20T05:48:26;2.80;;;1.17;;
33206;SDS011;19565;46.602;11.534;2023-07-20T05:50:56;1.90;;;1.45;;
33206;SDS011;19565;46.602;11.534;2023-07-20T05:53:24;2.50;;;1.73;;
33206;SDS011;19565;46.602;11.534;2023-07-20T05:55:52;2.28;;;1.63;;
33206;SDS011;19565;46.602;11.534;2023-07-20T05:58:20;3.58;;;1.90;;
33206;SDS011;19565;46.602;11.534;2023-07-20T06:00:49;1.17;;;1.17;;
33206;SDS011;19565;46.602;11.534;2023-07-20T06:03:17;2.35;;;2.20;;
33206;SDS011;19565;46.602;11.534;2023-07-20T06:05:47;1.08;;;1.08;;
33206;SDS011;19565;46.602;11.534;2023-07-20T06:08:17;2.00;;;1.70;;
33206;SDS011;19565;46.602;11.534;2023-07-20T06:10:49;2.72;;;2.38;;
33206;SDS011;19565;46.602;11.534;2023-07-20T06:13:18;2.13;;;1.67;;
33206;SDS011;19565;46.602;11.534;2023-07-20T06:15:46;2.53;;;2.33;;
33206;SDS011;19565;46.602;11.534;2023-07-20T06:18:14;1.65;;;1.55;;
33206;SDS011;19565;46.602;11.534;2023-07-20T06:20:42;2.45;;;1.70;;
33206;SDS011;19565;46.602;11.534;2023-07-20T06:23:17;1.63;;;1.52;;
33206;SDS011;19565;46.602;11.534;2023-07-20T06:25:45;5.65;;;3.97;;
33206;SDS011;19565;46.602;11.534;2023-07-20T06:28:13;1.92;;;1.65;;
33206;SDS011;19565;46.602;11.534;2023-07-20T06:30:41;1.80;;;1.67;;
33206;SDS011;19565;46.602;11.534;2023-07-20T06:33:09;2.08;;;1.90;;
33206;SDS011;19565;46.602;11.534;2023-07-20T06:35:37;2.08;;;1.83;;
33206;SDS011;19565;46.602;11.534;2023-07-20T06:38:09;3.40;;;2.30;;
33206;SDS011;19565;46.602;11.534;2023-07-20T06:40:41;2.67;;;2.47;;
33206;SDS011;19565;46.602;11.534;2023-07-20T06:43:09;3.30;;;3.00;;
33206;SDS011;19565;46.602;11.534;2023-07-20T06:45:40;2.47;;;2.20;;
33206;SDS011;19565;46.602;11.534;2023-07-20T06:48:08;3.45;;;2.78;;
33206;SDS011;19565;46.602;11.534;2023-07-20T06:50:37;5.95;;;4.13;;
33206;SDS011;19565;46.602;11.534;2023-07-20T06:53:05;3.90;;;3.58;;
33206;SDS011;19565;46.602;11.534;2023-07-20T06:55:33;3.60;;;3.30;;
33206;SDS011;19565;46.602;11.534;2023-07-20T06:58:09;3.40;;;3.20;;
33206;SDS011;19565;46.602;11.534;2023-07-20T07:00:37;4.53;;;4.13;;
33206;SDS011;19565;46.602;11.534;2023-07-20T07:03:05;3.70;;;3.40;;
33206;SDS011;19565;46.602;11.534;2023-07-20T07:05:35;3.63;;;3.40;;
33206;SDS011;19565;46.602;11.534;2023-07-20T07:08:04;3.75;;;3.45;;
33206;SDS011;19565;46.602;11.534;2023-07-20T07:10:33;4.40;;;4.00;;
33206;SDS011;19565;46.602;11.534;2023-07-20T07:13:02;5.43;;;4.93;;
33206;SDS011;19565;46.602;11.534;2023-07-20T07:15:33;5.03;;;4.57;;
33206;SDS011;19565;46.602;11.534;2023-07-20T07:18:02;5.55;;;5.15;;
33206;SDS011;19565;46.602;11.534;2023-07-20T07:20:30;5.00;;;4.70;;
33206;SDS011;19565;46.602;11.534;2023-07-20T07:22:58;5.28;;;4.80;;
33206;SDS011;19565;46.602;11.534;2023-07-20T07:25:27;4.85;;;4.43;;
33206;SDS011;19565;46.602;11.534;2023-07-20T07:27:55;4.68;;;4.38;;
33206;SDS011;19565;46.602;11.534;2023-07-20T07:30:23;6.65;;;6.25;;
33206;SDS011;19565;46.602;11.534;2023-07-20T07:32:52;8.35;;;7.65;;
33206;SDS011;19565;46.602;11.534;2023-07-20T07:35:20;8.93;;;8.32;;
33206;SDS011;19565;46.602;11.534;2023-07-20T07:37:49;8.75;;;8.15;;
33206;SDS011;19565;46.602;11.534;2023-07-20T07:40:35;8.88;;;8.38;;
33206;SDS011;19565;46.602;11.534;2023-07-20T07:43:03;10.30;;;9.70;;
33206;SDS011;19565;46.602;11.534;2023-07-20T07:45:31;11.20;;;10.55;;
33206;SDS011;19565;46.602;11.534;2023-07-20T07:48:04;11.20;;;10.57;;
33206;SDS011;19565;46.602;11.534;2023-07-20T07:50:33;12.75;;;12.05;;
33206;SDS011;19565;46.602;11.534;2023-07-20T07:53:01;12.02;;;11.25;;
33206;SDS011;19565;46.602;11.534;2023-07-20T07:55:29;10.20;;;9.50;;
33206;SDS011;19565;46.602;11.534;2023-07-20T07:57:57;9.95;;;9.35;;
33206;SDS011;19565;46.602;11.534;2023-07-20T08:00:25;10.35;;;9.75;;
33206;SDS011;19565;46.602;11.534;2023-07-20T08:02:53;10.88;;;10.27;;
33206;SDS011;19565;46.602;11.534;2023-07-20T08:05:23;11.70;;;10.90;;
33206;SDS011;19565;46.602;11.534;2023-07-20T08:07:52;13.00;;;12.20;;
33206;SDS011;19565;46.602;11.534;2023-07-20T08:10:21;12.70;;;12.00;;
33206;SDS011;19565;46.602;11.534;2023-07-20T08:12:50;11.93;;;11.23;;
33206;SDS011;19565;46.602;11.534;2023-07-20T08:15:18;10.82;;;10.13;;
33206;SDS011;19565;46.602;11.534;2023-07-20T08:17:48;15.25;;;14.38;;
33206;SDS011;19565;46.602;11.534;2023-07-20T08:20:18;17.52;;;16.65;;
33206;SDS011;19565;46.602;11.534;2023-07-20T08:22:51;20.10;;;18.90;;
33206;SDS011;19565;46.602;11.534;2023-07-20T08:25:19;23.95;;;22.85;;
33206;SDS011;19565;46.602;11.534;2023-07-20T08:27:47;25.75;;;24.58;;
33206;SDS011;19565;46.602;11.534;2023-07-20T08:30:15;26.52;;;25.33;;
33206;SDS011;19565;46.602;11.534;2023-07-20T08:32:44;26.48;;;25.25;;
33206;SDS011;19565;46.602;11.534;2023-07-20T08:35:12;29.70;;;28.10;;
33206;SDS011;19565;46.602;11.534;2023-07-20T08:37:41;32.13;;;30.63;;
33206;SDS011;19565;46.602;11.534;2023-07-20T08:40:11;39.20;;;37.50;;
33206;SDS011;19565;46.602;11.534;2023-07-20T08:42:41;45.95;;;43.75;;
33206;SDS011;19565;46.602;11.534;2023-07-20T08:45:11;49.83;;;47.65;;
33206;SDS011;19565;46.602;11.534;2023-07-20T08:47:41;54.10;;;51.80;;
33206;SDS011;19565;46.602;11.534;2023-07-20T08:50:11;51.55;;;49.10;;
33206;SDS011;19565;46.602;11.534;2023-07-20T08:52:41;53.28;;;50.92;;
33206;SDS011;19565;46.602;11.534;2023-07-20T08:55:10;55.85;;;53.47;;
33206;SDS011;19565;46.602;11.534;2023-07-20T08:57:40;55.25;;;52.75;;
33206;SDS011;19565;46.602;11.534;2023-07-20T09:00:11;54.63;;;52.33;;
33206;SDS011;19565;46.602;11.534;2023-07-20T09:02:43;58.67;;;56.03;;
33206;SDS011;19565;46.602;11.534;2023-07-20T09:05:13;62.13;;;59.42;;
33206;SDS011;19565;46.602;11.534;2023-07-20T09:07:41;60.58;;;57.97;;
33206;SDS011;19565;46.602;11.534;2023-07-20T09:10:11;59.90;;;57.30;;
33206;SDS011;19565;46.602;11.534;2023-07-20T09:12:40;55.80;;;53.28;;
33206;SDS011;19565;46.602;11.534;2023-07-20T09:15:09;61.70;;;59.10;;
33206;SDS011;19565;46.602;11.534;2023-07-20T09:17:38;64.03;;;61.17;;
33206;SDS011;19565;46.602;11.534;2023-07-20T09:20:06;63.60;;;60.88;;
33206;SDS011;19565;46.602;11.534;2023-07-20T09:22:37;62.47;;;59.78;;
33206;SDS011;19565;46.602;11.534;2023-07-20T09:25:07;65.38;;;62.58;;
33206;SDS011;19565;46.602;11.534;2023-07-20T09:27:40;64.75;;;61.95;;
33206;SDS011;19565;46.602;11.534;2023-07-20T09:30:10;65.00;;;62.20;;
33206;SDS011;19565;46.602;11.534;2023-07-20T09:32:44;54.45;;;52.05;;
33206;SDS011;19565;46.602;11.534;2023-07-20T09:35:16;65.97;;;63.08;;
33206;SDS011;19565;46.602;11.534;2023-07-20T09:37:49;58.33;;;55.83;;
33206;SDS011;19565;46.602;11.534;2023-07-20T09:40:40;58.05;;;55.35;;
33206;SDS011;19565;46.602;11.534;2023-07-20T09:43:12;63.70;;;61.03;;
33206;SDS011;19565;46.602;11.534;2023-07-20T09:45:46;64.00;;;61.10;;
33206;SDS011;19565;46.602;11.534;2023-07-20T09:48:17;61.55;;;58.83;;
33206;SDS011;19565;46.602;11.534;2023-07-20T09:50:51;69.63;;;66.63;;
33206;SDS011;19565;46.602;11.534;2023-07-20T09:53:20;62.67;;;59.92;;
33206;SDS011;19565;46.602;11.534;2023-07-20T09:55:50;73.13;;;69.72;;
33206;SDS011;19565;46.602;11.534;2023-07-20T09:58:21;61.72;;;59.03;;
33206;SDS011;19565;46.602;11.534;2023-07-20T10:00:51;62.72;;;60.03;;
33206;SDS011;19565;46.602;11.534;2023-07-20T10:03:20;76.32;;;73.22;;
33206;SDS011;19565;46.602;11.534;2023-07-20T10:05:52;87.50;;;84.00;;
33206;SDS011;19565;46.602;11.534;2023-07-20T10:08:24;89.70;;;86.00;;
33206;SDS011;19565;46.602;11.534;2023-07-20T10:10:58;87.00;;;82.35;;
33206;SDS011;19565;46.602;11.534;2023-07-20T10:13:29;89.03;;;85.43;;
33206;SDS011;19565;46.602;11.534;2023-07-20T10:15:59;82.90;;;79.60;;
33206;SDS011;19565;46.602;11.534;2023-07-20T10:18:30;80.43;;;77.03;;
33206;SDS011;19565;46.602;11.534;2023-07-20T10:21:06;79.43;;;75.97;;
33206;SDS011;19565;46.602;11.534;2023-07-20T10:23:38;84.35;;;80.93;;
33206;SDS011;19565;46.602;11.534;2023-07-20T10:26:08;81.50;;;78.10;;
33206;SDS011;19565;46.602;11.534;2023-07-20T10:28:37;76.85;;;73.20;;
33206;SDS011;19565;46.602;11.534;2023-07-20T10:31:07;75.25;;;72.15;;
33206;SDS011;19565;46.602;11.534;2023-07-20T10:33:36;74.15;;;71.10;;
33206;SDS011;19565;46.602;11.534;2023-07-20T10:36:05;71.05;;;68.03;;
33206;SDS011;19565;46.602;11.534;2023-07-20T10:38:40;69.88;;;66.88;;
33206;SDS011;19565;46.602;11.534;2023-07-20T10:41:17;74.45;;;71.35;;
33206;SDS011;19565;46.602;11.534;2023-07-20T10:43:46;75.80;;;72.65;;
33206;SDS011;19565;46.602;11.534;2023-07-20T10:46:17;89.47;;;85.75;;
33206;SDS011;19565;46.602;11.534;2023-07-20T10:49:02;82.25;;;78.75;;
33206;SDS011;19565;46.602;11.534;2023-07-20T10:51:38;82.93;;;79.53;;
33206;SDS011;19565;46.602;11.534;2023-07-20T10:54:33;80.85;;;77.35;;
33206;SDS011;19565;46.602;11.534;2023-07-20T11:00:07;89.25;;;85.65;;
33206;SDS011;19565;46.602;11.534;2023-07-20T11:02:44;91.72;;;87.95;;
33206;SDS011;19565;46.602;11.534;2023-07-20T11:08:06;85.72;;;82.15;;
33206;SDS011;19565;46.602;11.534;2023-07-20T11:10:37;77.03;;;73.70;;
33206;SDS011;19565;46.602;11.534;2023-07-20T11:13:17;77.35;;;74.13;;
33206;SDS011;19565;46.602;11.534;2023-07-20T11:16:01;74.32;;;70.55;;
33206;SDS011;19565;46.602;11.534;2023-07-20T11:18:33;71.60;;;68.60;;
33206;SDS011;19565;46.602;11.534;2023-07-20T11:21:09;79.13;;;75.72;;
33206;SDS011;19565;46.602;11.534;2023-07-20T11:23:38;76.63;;;72.55;;
33206;SDS011;19565;46.602;11.534;2023-07-20T11:26:07;78.43;;;74.53;;
33206;SDS011;19565;46.602;11.534;2023-07-20T11:28:37;83.30;;;79.60;;
33206;SDS011;19565;46.602;11.534;2023-07-20T11:31:05;73.90;;;70.75;;
33206;SDS011;19565;46.602;11.534;2023-07-20T11:33:33;81.60;;;78.20;;
33206;SDS011;19565;46.602;11.534;2023-07-20T11:36:01;76.82;;;73.55;;
33206;SDS011;19565;46.602;11.534;2023-07-20T11:38:51;72.28;;;69.13;;
33206;SDS011;19565;46.602;11.534;2023-07-20T11:41:20;77.78;;;74.47;;
33206;SDS011;19565;46.602;11.534;2023-07-20T11:43:50;76.20;;;72.95;;
33206;SDS011;19565;46.602;11.534;2023-07-20T11:46:18;71.63;;;68.32;;
33206;SDS011;19565;46.602;11.534;2023-07-20T11:48:46;71.25;;;68.03;;
33206;SDS011;19565;46.602;11.534;2023-07-20T11:51:15;75.57;;;72.28;;
33206;SDS011;19565;46.602;11.534;2023-07-20T11:53:44;71.50;;;68.40;;
33206;SDS011;19565;46.602;11.534;2023-07-20T11:56:13;65.63;;;62.75;;
33206;SDS011;19565;46.602;11.534;2023-07-20T11:58:42;65.85;;;63.05;;
33206;SDS011;19565;46.602;11.534;2023-07-20T12:01:12;73.22;;;69.78;;
33206;SDS011;19565;46.602;11.534;2023-07-20T12:03:41;73.00;;;69.82;;
33206;SDS011;19565;46.602;11.534;2023-07-20T12:06:10;73.90;;;70.60;;
33206;SDS011;19565;46.602;11.534;2023-07-20T12:08:38;67.78;;;64.93;;
33206;SDS011;19565;46.602;11.534;2023-07-20T12:11:07;70.85;;;67.70;;
33206;SDS011;19565;46.602;11.534;2023-07-20T12:13:36;71.35;;;68.10;;
33206;SDS011;19565;46.602;11.534;2023-07-20T12:16:12;70.35;;;67.35;;
33206;SDS011;19565;46.602;11.534;2023-07-20T12:18:42;70.75;;;67.68;;
33206;SDS011;19565;46.602;11.534;2023-07-20T12:21:11;67.35;;;64.45;;
33206;SDS011;19565;46.602;11.534;2023-07-20T12:23:39;66.88;;;63.97;;
33206;SDS011;19565;46.602;11.534;2023-07-20T12:26:08;68.80;;;65.80;;
33206;SDS011;19565;46.602;11.534;2023-07-20T12:28:40;66.22;;;63.35;;
33206;SDS011;19565;46.602;11.534;2023-07-20T12:31:08;70.63;;;67.53;;
33206;SDS011;19565;46.602;11.534;2023-07-20T12:33:41;73.53;;;69.88;;
33206;SDS011;19565;46.602;11.534;2023-07-20T12:36:10;70.28;;;67.18;;
33206;SDS011;19565;46.602;11.534;2023-07-20T12:38:38;67.03;;;64.13;;
33206;SDS011;19565;46.602;11.534;2023-07-20T12:41:09;65.13;;;62.33;;
33206;SDS011;19565;46.602;11.534;2023-07-20T12:43:38;69.68;;;66.57;;
33206;SDS011;19565;46.602;11.534;2023-07-20T12:46:07;70.40;;;67.40;;
33206;SDS011;19565;46.602;11.534;2023-07-20T12:48:36;67.32;;;64.32;;
33206;SDS011;19565;46.602;11.534;2023-07-20T12:51:08;67.82;;;64.93;;
33206;SDS011;19565;46.602;11.534;2023-07-20T12:53:36;67.90;;;64.95;;
33206;SDS011;19565;46.602;11.534;2023-07-20T12:56:04;67.53;;;64.53;;
33206;SDS011;19565;46.602;11.534;2023-07-20T12:58:35;64.53;;;61.55;;
33206;SDS011;19565;46.602;11.534;2023-07-20T13:01:03;64.35;;;61.35;;
33206;SDS011;19565;46.602;11.534;2023-07-20T13:03:31;64.63;;;61.83;;
33206;SDS011;19565;46.602;11.534;2023-07-20T13:06:00;68.82;;;65.93;;
33206;SDS011;19565;46.602;11.534;2023-07-20T13:08:32;68.38;;;65.43;;
33206;SDS011;19565;46.602;11.534;2023-07-20T13:11:00;65.82;;;62.90;;
33206;SDS011;19565;46.602;11.534;2023-07-20T13:13:29;67.47;;;64.57;;
33206;SDS011;19565;46.602;11.534;2023-07-20T13:15:59;68.88;;;65.90;;
33206;SDS011;19565;46.602;11.534;2023-07-20T13:18:27;67.55;;;64.18;;
33206;SDS011;19565;46.602;11.534;2023-07-20T13:20:56;66.05;;;63.08;;
33206;SDS011;19565;46.602;11.534;2023-07-20T13:23:24;68.03;;;64.30;;
33206;SDS011;19565;46.602;11.534;2023-07-20T13:25:54;69.22;;;66.32;;
33206;SDS011;19565;46.602;11.534;2023-07-20T13:28:22;67.03;;;64.22;;
33206;SDS011;19565;46.602;11.534;2023-07-20T13:30:50;67.90;;;64.80;;
33206;SDS011;19565;46.602;11.534;2023-07-20T13:33:19;67.10;;;64.20;;
33206;SDS011;19565;46.602;11.534;2023-07-20T13:35:48;65.18;;;62.38;;
33206;SDS011;19565;46.602;11.534;2023-07-20T13:38:16;64.70;;;61.85;;
33206;SDS011;19565;46.602;11.534;2023-07-20T13:40:44;66.70;;;63.75;;
33206;SDS011;19565;46.602;11.534;2023-07-20T13:43:14;65.55;;;62.58;;
33206;SDS011;19565;46.602;11.534;2023-07-20T13:45:42;65.35;;;62.45;;
33206;SDS011;19565;46.602;11.534;2023-07-20T13:48:10;67.13;;;63.85;;
33206;SDS011;19565;46.602;11.534;2023-07-20T13:50:42;68.43;;;65.38;;
33206;SDS011;19565;46.602;11.534;2023-07-20T13:53:24;67.63;;;64.70;;
33206;SDS011;19565;46.602;11.534;2023-07-20T13:55:56;67.78;;;64.88;;
33206;SDS011;19565;46.602;11.534;2023-07-20T13:58:29;68.75;;;65.55;;
33206;SDS011;19565;46.602;11.534;2023-07-20T14:00:57;69.47;;;66.32;;
33206;SDS011;19565;46.602;11.534;2023-07-20T14:03:25;68.53;;;65.55;;
33206;SDS011;19565;46.602;11.534;2023-07-20T14:05:54;62.38;;;59.47;;
33206;SDS011;19565;46.602;11.534;2023-07-20T14:08:25;64.03;;;61.22;;
33206;SDS011;19565;46.602;11.534;2023-07-20T14:10:54;65.35;;;62.22;;
33206;SDS011;19565;46.602;11.534;2023-07-20T14:13:25;70.18;;;66.82;;
33206;SDS011;19565;46.602;11.534;2023-07-20T14:16:12;60.92;;;57.75;;
33206;SDS011;19565;46.602;11.534;2023-07-20T14:18:40;60.65;;;57.60;;
33206;SDS011;19565;46.602;11.534;2023-07-20T14:21:08;66.57;;;63.75;;
33206;SDS011;19565;46.602;11.534;2023-07-20T14:23:37;66.85;;;63.95;;
33206;SDS011;19565;46.602;11.534;2023-07-20T14:26:04;64.80;;;62.00;;
33206;SDS011;19565;46.602;11.534;2023-07-20T14:28:36;66.90;;;64.00;;
33206;SDS011;19565;46.602;11.534;2023-07-20T14:31:04;69.05;;;66.05;;
33206;SDS011;19565;46.602;11.534;2023-07-20T14:33:33;70.22;;;66.97;;
33206;SDS011;19565;46.602;11.534;2023-07-20T14:36:02;71.70;;;68.47;;
33206;SDS011;19565;46.602;11.534;2023-07-20T14:38:31;75.68;;;72.38;;
33206;SDS011;19565;46.602;11.534;2023-07-20T14:41:01;79.75;;;76.47;;
33206;SDS011;19565;46.602;11.534;2023-07-20T14:43:29;78.35;;;75.05;;
33206;SDS011;19565;46.602;11.534;2023-07-20T14:45:59;78.57;;;75.18;;
33206;SDS011;19565;46.602;11.534;2023-07-20T14:48:27;71.30;;;68.25;;